Time;durP1;ratioP1;P1;durP2;ratioP2;P2;SDS_P1;SDS_P2;PMS_P1;PMS_P2;Temp;Humidity;BMP_temperature;BMP_pressure;BME280_temperature;BME280_humidity;BME280_pressure;Samples;Min_cycle;Max_cycle;Signal;HPM_P1;HPM_P2
2020/04/08 00:02:50;;;;;;;2.90;2.70;;;;;;;19.07;35.25;101528.47;;;;-62
2020/04/08 00:06:49;;;;;;;2.77;2.49;;;;;;;19.07;35.26;101526.38;;;;-62
2020/04/08 00:16:22;;;;;;;2.89;2.69;;;;;;;19.04;35.27;101518.99;;;;-61
2020/04/08 00:21:14;;;;;;;2.78;2.58;;;;;;;19.02;35.25;101515.31;;;;-62
2020/04/08 00:24:18;;;;;;;2.93;2.67;;;;;;;19.03;35.24;101517.42;;;;-62
2020/04/08 00:32:11;;;;;;;2.74;2.54;;;;;;;19.01;35.27;101512.06;;;;-61
2020/04/08 00:35:08;;;;;;;2.98;2.69;;;;;;;19.01;35.26;101509.93;;;;-61
2020/04/08 00:39:07;;;;;;;2.88;2.63;;;;;;;19.00;35.26;101506.88;;;;-60
2020/04/08 00:44:07;;;;;;;3.03;2.75;;;;;;;19.00;35.27;101506.19;;;;-60
2020/04/08 00:48:07;;;;;;;3.08;2.88;;;;;;;18.99;35.29;101504.23;;;;-61
2020/04/08 00:51:07;;;;;;;2.85;2.61;;;;;;;18.99;35.28;101500.09;;;;-61
2020/04/08 00:56:08;;;;;;;3.61;2.79;;;;;;;18.97;35.28;101497.08;;;;-62
2020/04/08 00:59:08;;;;;;;3.58;2.67;;;;;;;18.97;35.25;101494.56;;;;-62
2020/04/08 01:02:07;;;;;;;2.80;2.60;;;;;;;18.97;35.26;101488.53;;;;-61
2020/04/08 01:07:08;;;;;;;2.99;2.79;;;;;;;18.96;35.28;101486.53;;;;-61
2020/04/08 01:12:08;;;;;;;3.31;3.01;;;;;;;18.95;35.26;101481.43;;;;-61
2020/04/08 01:15:08;;;;;;;3.71;2.89;;;;;;;18.95;35.30;101481.31;;;;-61
2020/04/08 01:18:08;;;;;;;2.99;2.70;;;;;;;18.95;35.28;101478.52;;;;-61
2020/04/08 01:22:08;;;;;;;2.99;2.79;;;;;;;18.94;35.28;101474.22;;;;-61
2020/04/08 01:25:08;;;;;;;2.87;2.67;;;;;;;18.95;35.25;101476.07;;;;-61
2020/04/08 01:28:08;;;;;;;3.05;2.77;;;;;;;18.94;35.25;101473.33;;;;-60
2020/04/08 01:32:08;;;;;;;3.01;2.81;;;;;;;18.93;35.26;101472.55;;;;-61
2020/04/08 01:35:08;;;;;;;3.09;2.86;;;;;;;18.93;35.26;101468.80;;;;-62
2020/04/08 01:39:08;;;;;;;3.21;2.95;;;;;;;18.92;35.29;101472.42;;;;-61
2020/04/08 01:44:08;;;;;;;3.10;2.80;;;;;;;18.92;35.28;101472.70;;;;-62
2020/04/08 01:47:08;;;;;;;3.07;2.85;;;;;;;18.91;35.23;101470.92;;;;-61
2020/04/08 01:50:08;;;;;;;3.15;2.85;;;;;;;18.92;35.27;101471.36;;;;-61
2020/04/08 01:55:08;;;;;;;3.10;2.77;;;;;;;18.90;35.30;101469.69;;;;-61
2020/04/08 01:58:08;;;;;;;3.20;2.90;;;;;;;18.90;35.25;101472.12;;;;-61
2020/04/08 02:01:08;;;;;;;3.02;2.82;;;;;;;18.89;35.29;101475.81;;;;-62
2020/04/08 02:06:08;;;;;;;3.57;3.11;;;;;;;18.89;35.28;101471.01;;;;-61
2020/04/08 02:09:08;;;;;;;3.20;2.90;;;;;;;18.90;35.28;101472.91;;;;-61
2020/04/08 02:13:08;;;;;;;3.35;3.05;;;;;;;18.89;35.29;101472.39;;;;-62
2020/04/08 02:17:08;;;;;;;3.00;2.79;;;;;;;18.87;35.28;101473.22;;;;-62
2020/04/08 02:21:07;;;;;;;3.36;3.06;;;;;;;18.88;35.23;101470.90;;;;-61
2020/04/08 02:24:08;;;;;;;3.48;3.18;;;;;;;18.87;35.29;101464.23;;;;-61
2020/04/08 02:27:08;;;;;;;3.35;2.99;;;;;;;18.87;35.26;101467.48;;;;-61
2020/04/08 02:32:08;;;;;;;3.12;2.82;;;;;;;18.87;35.27;101464.02;;;;-61
2020/04/08 02:35:08;;;;;;;3.33;3.03;;;;;;;18.86;35.29;101463.73;;;;-62
2020/04/08 02:38:08;;;;;;;3.32;3.02;;;;;;;18.87;35.29;101465.80;;;;-62
2020/04/08 02:41:07;;;;;;;3.10;2.85;;;;;;;18.86;35.30;101464.84;;;;-61
2020/04/08 02:44:07;;;;;;;3.63;2.98;;;;;;;18.86;35.29;101462.28;;;;-61
2020/04/08 02:47:08;;;;;;;3.15;2.87;;;;;;;18.85;35.31;101465.84;;;;-61
2020/04/08 02:50:08;;;;;;;3.67;3.37;;;;;;;18.84;35.29;101463.31;;;;-61
2020/04/08 02:53:08;;;;;;;3.37;3.07;;;;;;;18.84;35.30;101459.42;;;;-62
2020/04/08 02:56:08;;;;;;;3.28;3.04;;;;;;;18.84;35.27;101463.44;;;;-61
2020/04/08 02:59:08;;;;;;;3.52;3.22;;;;;;;18.85;35.28;101462.22;;;;-62
2020/04/08 03:02:07;;;;;;;3.36;3.07;;;;;;;18.84;35.27;101464.00;;;;-61
2020/04/08 03:06:08;;;;;;;3.45;3.15;;;;;;;18.83;35.29;101462.70;;;;-60
2020/04/08 03:09:08;;;;;;;3.51;3.21;;;;;;;18.82;35.32;101466.38;;;;-61
2020/04/08 03:12:08;;;;;;;3.37;3.07;;;;;;;18.82;35.30;101460.91;;;;-61
2020/04/08 03:17:08;;;;;;;3.38;3.08;;;;;;;18.82;35.28;101455.72;;;;-61
2020/04/08 03:20:07;;;;;;;3.31;3.01;;;;;;;18.81;35.29;101454.48;;;;-62
2020/04/08 03:23:07;;;;;;;3.31;3.01;;;;;;;18.80;35.30;101457.04;;;;-62
2020/04/08 03:26:07;;;;;;;3.50;3.20;;;;;;;18.80;35.29;101453.25;;;;-61
2020/04/08 03:29:07;;;;;;;3.68;3.30;;;;;;;18.80;35.30;101459.05;;;;-60
2020/04/08 03:32:07;;;;;;;3.74;3.41;;;;;;;18.79;35.31;101453.41;;;;-62
2020/04/08 03:35:07;;;;;;;3.66;3.36;;;;;;;18.80;35.32;101454.70;;;;-62
2020/04/08 03:38:12;;;;;;;4.13;3.47;;;;;;;18.80;35.29;101458.33;;;;-61
2020/04/08 03:41:16;;;;;;;3.37;3.13;;;;;;;18.80;35.30;101458.16;;;;-61
2020/04/08 03:44:13;;;;;;;3.53;3.23;;;;;;;18.81;35.30;101455.61;;;;-62
2020/04/08 03:47:13;;;;;;;3.27;3.03;;;;;;;18.82;35.26;101455.61;;;;-62
2020/04/08 03:50:22;;;;;;;3.49;3.19;;;;;;;18.83;35.24;101451.55;;;;-61
2020/04/08 03:53:29;;;;;;;3.61;3.31;;;;;;;18.84;35.24;101450.09;;;;-61
2020/04/08 04:05:07;;;;;;;4.13;3.73;;;;;;;18.93;35.44;101452.95;;;;-61
2020/04/08 04:08:08;;;;;;;4.09;3.69;;;;;;;18.95;35.48;101449.58;;;;-61
2020/04/08 04:11:07;;;;;;;3.80;3.44;;;;;;;18.98;35.49;101455.50;;;;-61
2020/04/08 04:14:08;;;;;;;4.39;3.99;;;;;;;18.99;35.56;101453.52;;;;-61
2020/04/08 04:17:08;;;;;;;3.73;3.43;;;;;;;19.02;35.54;101453.74;;;;-61
2020/04/08 04:20:08;;;;;;;3.86;3.47;;;;;;;19.04;35.56;101451.20;;;;-63
2020/04/08 04:23:07;;;;;;;4.17;3.67;;;;;;;19.07;35.54;101448.09;;;;-60
2020/04/08 04:26:07;;;;;;;4.07;3.70;;;;;;;19.10;35.59;101450.17;;;;-61
2020/04/08 04:29:08;;;;;;;3.92;3.60;;;;;;;19.12;35.60;101453.77;;;;-61
2020/04/08 04:32:08;;;;;;;4.53;4.04;;;;;;;19.13;35.63;101455.42;;;;-61
2020/04/08 04:35:07;;;;;;;4.19;3.79;;;;;;;19.16;35.60;101454.32;;;;-61
2020/04/08 04:38:07;;;;;;;3.98;3.44;;;;;;;19.18;35.62;101451.99;;;;-61
2020/04/08 04:41:07;;;;;;;4.05;3.66;;;;;;;19.20;35.59;101453.06;;;;-61
2020/04/08 04:44:08;;;;;;;3.95;3.62;;;;;;;19.22;35.63;101452.91;;;;-61
2020/04/08 04:47:07;;;;;;;4.08;3.69;;;;;;;19.23;35.57;101450.75;;;;-61
2020/04/08 04:50:08;;;;;;;4.14;3.74;;;;;;;19.25;35.63;101452.77;;;;-61
2020/04/08 04:53:08;;;;;;;3.87;3.51;;;;;;;19.26;35.60;101456.95;;;;-62
2020/04/08 04:56:08;;;;;;;3.98;3.68;;;;;;;19.28;35.59;101458.04;;;;-62
2020/04/08 04:59:07;;;;;;;4.13;3.73;;;;;;;19.29;35.64;101457.81;;;;-61
2020/04/08 05:02:07;;;;;;;4.13;3.76;;;;;;;19.30;35.56;101459.21;;;;-62
2020/04/08 05:05:07;;;;;;;4.55;3.86;;;;;;;19.32;35.57;101461.73;;;;-61
2020/04/08 05:08:08;;;;;;;4.65;4.02;;;;;;;19.33;35.56;101457.27;;;;-61
2020/04/08 05:11:08;;;;;;;3.88;3.58;;;;;;;19.34;35.54;101460.86;;;;-61
2020/04/08 05:14:07;;;;;;;4.00;3.65;;;;;;;19.35;35.52;101462.53;;;;-61
2020/04/08 05:17:07;;;;;;;4.27;3.87;;;;;;;19.36;35.52;101470.02;;;;-61
2020/04/08 05:20:07;;;;;;;4.37;3.93;;;;;;;19.37;35.54;101470.25;;;;-62
2020/04/08 05:23:07;;;;;;;5.20;4.16;;;;;;;19.39;35.62;101466.86;;;;-61
2020/04/08 05:26:07;;;;;;;4.69;4.23;;;;;;;19.41;35.57;101466.27;;;;-61
2020/04/08 05:29:08;;;;;;;4.65;3.90;;;;;;;19.44;35.56;101467.83;;;;-61
2020/04/08 05:32:08;;;;;;;5.57;4.01;;;;;;;19.46;35.55;101467.02;;;;-61
2020/04/08 05:35:08;;;;;;;5.18;3.90;;;;;;;19.48;35.51;101467.31;;;;-61
2020/04/08 05:38:07;;;;;;;6.73;4.03;;;;;;;19.52;35.47;101470.05;;;;-61
2020/04/08 05:41:07;;;;;;;5.29;3.79;;;;;;;19.55;35.44;101474.98;;;;-61
2020/04/08 05:44:08;;;;;;;6.44;3.69;;;;;;;19.56;35.44;101477.22;;;;-61
2020/04/08 05:47:08;;;;;;;5.25;3.88;;;;;;;19.57;35.42;101481.98;;;;-61
2020/04/08 05:50:08;;;;;;;4.87;3.64;;;;;;;19.58;35.42;101479.47;;;;-61
2020/04/08 05:53:07;;;;;;;4.00;3.67;;;;;;;19.60;35.40;101480.16;;;;-62
2020/04/08 05:56:07;;;;;;;5.16;3.81;;;;;;;19.61;35.37;101477.03;;;;-61
2020/04/08 05:59:07;;;;;;;4.45;3.61;;;;;;;19.62;35.35;101477.43;;;;-61
2020/04/08 06:02:07;;;;;;;4.80;3.49;;;;;;;19.63;35.29;101480.17;;;;-61
2020/04/08 06:05:08;;;;;;;4.17;3.60;;;;;;;19.64;35.34;101485.43;;;;-61
2020/04/08 06:08:07;;;;;;;3.97;3.53;;;;;;;19.65;35.35;101481.02;;;;-61
2020/04/08 06:11:08;;;;;;;4.01;3.43;;;;;;;19.66;35.29;101486.33;;;;-61
2020/04/08 06:20:20;;;;;;;5.19;3.73;;;;;;;19.72;35.27;101487.08;;;;-61
2020/04/08 06:23:08;;;;;;;4.23;3.83;;;;;;;19.75;35.26;101485.77;;;;-55
2020/04/08 06:26:08;;;;;;;4.09;3.53;;;;;;;19.77;35.26;101491.56;;;;-56
2020/04/08 06:29:07;;;;;;;3.93;3.57;;;;;;;19.80;35.22;101489.25;;;;-55
2020/04/08 06:32:07;;;;;;;3.81;3.45;;;;;;;19.82;35.20;101486.41;;;;-55
2020/04/08 06:35:07;;;;;;;3.95;3.60;;;;;;;19.83;35.20;101488.42;;;;-55
2020/04/08 06:38:07;;;;;;;3.85;3.44;;;;;;;19.84;35.19;101486.86;;;;-56
2020/04/08 06:41:07;;;;;;;3.85;3.50;;;;;;;19.86;35.19;101488.66;;;;-56
2020/04/08 06:44:07;;;;;;;4.55;3.53;;;;;;;19.87;35.18;101481.84;;;;-55
2020/04/08 06:47:07;;;;;;;4.33;3.61;;;;;;;19.88;35.17;101482.34;;;;-56
2020/04/08 06:50:08;;;;;;;4.07;3.57;;;;;;;19.88;35.18;101480.84;;;;-56
2020/04/08 06:53:07;;;;;;;3.59;3.29;;;;;;;19.89;35.15;101483.81;;;;-56
2020/04/08 06:56:07;;;;;;;4.25;3.48;;;;;;;19.90;35.15;101484.03;;;;-55
2020/04/08 06:59:07;;;;;;;3.95;3.55;;;;;;;19.91;35.13;101484.66;;;;-55
2020/04/08 07:02:07;;;;;;;3.75;3.45;;;;;;;19.92;35.14;101482.98;;;;-55
2020/04/08 07:05:08;;;;;;;3.73;3.41;;;;;;;19.94;35.09;101484.33;;;;-55
2020/04/08 07:08:08;;;;;;;3.99;3.33;;;;;;;19.94;35.09;101483.33;;;;-55
2020/04/08 07:11:07;;;;;;;3.98;3.45;;;;;;;19.95;35.09;101481.81;;;;-55
2020/04/08 07:14:07;;;;;;;3.77;3.37;;;;;;;19.96;35.10;101480.80;;;;-55
2020/04/08 07:17:07;;;;;;;3.69;3.39;;;;;;;19.96;35.08;101480.30;;;;-56
2020/04/08 07:20:07;;;;;;;3.77;3.35;;;;;;;19.97;35.11;101481.03;;;;-56
2020/04/08 07:23:09;;;;;;;3.87;3.35;;;;;;;19.98;35.07;101476.16;;;;-55
2020/04/08 07:26:07;;;;;;;3.73;3.43;;;;;;;19.99;35.05;101479.47;;;;-56
2020/04/08 07:29:08;;;;;;;3.63;3.30;;;;;;;20.00;35.05;101475.00;;;;-55
2020/04/08 07:32:08;;;;;;;4.33;3.58;;;;;;;20.03;35.01;101476.78;;;;-55
2020/04/08 07:35:07;;;;;;;3.85;3.53;;;;;;;20.03;34.98;101477.53;;;;-55
2020/04/08 07:38:07;;;;;;;3.71;3.35;;;;;;;20.06;34.93;101477.25;;;;-55
2020/04/08 07:41:07;;;;;;;3.90;3.40;;;;;;;20.06;34.97;101474.39;;;;-55
2020/04/08 07:44:07;;;;;;;3.49;3.19;;;;;;;20.06;34.95;101472.09;;;;-56
2020/04/08 07:47:08;;;;;;;6.13;3.43;;;;;;;20.10;35.21;101479.50;;;;-50
2020/04/08 07:50:07;;;;;;;9.15;6.79;;;;;;;19.91;34.57;101472.80;;;;-55
2020/04/08 07:53:08;;;;;;;9.60;6.76;;;;;;;19.87;35.10;101471.45;;;;-52
2020/04/08 07:56:07;;;;;;;7.11;5.82;;;;;;;19.91;35.15;101473.02;;;;-56
2020/04/08 07:59:07;;;;;;;6.34;5.13;;;;;;;19.94;35.40;101473.33;;;;-54
2020/04/08 08:02:07;;;;;;;7.03;5.00;;;;;;;19.96;35.48;101472.98;;;;-51
2020/04/08 08:05:07;;;;;;;6.01;4.75;;;;;;;19.98;35.43;101470.89;;;;-53
2020/04/08 08:08:07;;;;;;;6.01;4.68;;;;;;;19.99;35.54;101473.10;;;;-52
2020/04/08 08:11:08;;;;;;;5.83;5.05;;;;;;;20.02;35.57;101472.77;;;;-46
2020/04/08 08:14:07;;;;;;;8.01;4.91;;;;;;;20.02;35.60;101472.77;;;;-54
2020/04/08 08:17:07;;;;;;;7.07;4.69;;;;;;;20.04;35.75;101474.22;;;;-53
2020/04/08 08:20:07;;;;;;;6.41;4.79;;;;;;;20.05;35.70;101478.47;;;;-57
2020/04/08 08:23:07;;;;;;;6.87;4.62;;;;;;;20.05;35.73;101480.66;;;;-57
2020/04/08 08:26:07;;;;;;;5.73;4.69;;;;;;;20.06;35.72;101479.70;;;;-53
2020/04/08 08:29:08;;;;;;;5.95;4.75;;;;;;;20.07;36.08;101480.03;;;;-55
2020/04/08 08:32:08;;;;;;;7.76;4.51;;;;;;;20.07;35.87;101478.48;;;;-60
2020/04/08 08:35:07;;;;;;;6.70;4.35;;;;;;;20.07;35.61;101483.39;;;;-60
2020/04/08 08:38:07;;;;;;;7.85;4.32;;;;;;;20.06;35.56;101482.22;;;;-60
2020/04/08 08:41:07;;;;;;;6.05;4.19;;;;;;;20.05;35.53;101477.91;;;;-59
2020/04/08 08:44:07;;;;;;;7.71;4.51;;;;;;;20.04;35.51;101480.94;;;;-60
2020/04/08 08:47:08;;;;;;;5.27;4.28;;;;;;;20.03;35.48;101478.36;;;;-59
2020/04/08 08:50:07;;;;;;;7.44;4.42;;;;;;;20.04;35.65;101481.27;;;;-50
2020/04/08 08:53:07;;;;;;;6.02;4.52;;;;;;;20.05;35.83;101479.25;;;;-51
2020/04/08 08:56:07;;;;;;;7.53;4.53;;;;;;;20.06;35.80;101476.24;;;;-50
2020/04/08 08:59:07;;;;;;;5.81;4.01;;;;;;;20.05;35.87;101475.56;;;;-54
2020/04/08 09:02:07;;;;;;;5.09;4.07;;;;;;;20.07;35.95;101476.52;;;;-57
2020/04/08 09:05:07;;;;;;;7.72;4.31;;;;;;;20.07;35.95;101470.72;;;;-54
2020/04/08 09:08:08;;;;;;;6.29;4.10;;;;;;;20.07;35.93;101469.88;;;;-52
2020/04/08 09:11:07;;;;;;;5.95;3.99;;;;;;;20.07;35.96;101467.70;;;;-53
2020/04/08 09:14:08;;;;;;;5.06;4.31;;;;;;;20.08;35.92;101468.31;;;;-54
2020/04/08 09:17:07;;;;;;;5.33;4.07;;;;;;;20.09;35.92;101469.54;;;;-54
2020/04/08 09:20:07;;;;;;;5.17;4.01;;;;;;;20.09;35.96;101464.11;;;;-49
2020/04/08 09:23:07;;;;;;;7.03;4.29;;;;;;;20.09;35.99;101461.48;;;;-51
2020/04/08 09:26:08;;;;;;;8.08;4.23;;;;;;;20.09;36.03;101453.94;;;;-56
2020/04/08 09:29:09;;;;;;;4.49;3.85;;;;;;;20.08;35.79;101459.03;;;;-56
2020/04/08 09:32:42;;;;;;;5.39;4.02;;;;;;;20.06;35.68;101449.70;;;;-56
2020/04/08 09:35:23;;;;;;;8.68;4.15;;;;;;;20.05;35.70;101446.79;;;;-53
2020/04/08 09:38:46;;;;;;;5.31;4.26;;;;;;;20.05;35.65;101450.52;;;;-53
2020/04/08 09:41:12;;;;;;;5.46;4.09;;;;;;;20.02;35.56;101444.09;;;;-53
2020/04/08 09:44:18;;;;;;;5.19;3.94;;;;;;;20.02;35.63;101445.77;;;;-51
2020/04/08 09:47:20;;;;;;;5.89;3.93;;;;;;;20.02;35.74;101441.08;;;;-50
2020/04/08 09:50:29;;;;;;;5.32;4.06;;;;;;;20.02;35.90;101438.55;;;;-51
2020/04/08 09:53:12;;;;;;;6.65;4.10;;;;;;;20.02;35.90;101431.45;;;;-57
2020/04/08 09:56:32;;;;;;;4.03;3.57;;;;;;;20.04;35.97;101425.48;;;;-51
2020/04/08 09:59:16;;;;;;;4.67;4.10;;;;;;;20.03;35.97;101420.84;;;;-54
2020/04/08 10:02:18;;;;;;;7.11;4.21;;;;;;;20.03;35.90;101411.95;;;;-45
2020/04/08 10:05:13;;;;;;;5.62;3.78;;;;;;;20.03;35.94;101411.61;;;;-49
2020/04/08 10:08:18;;;;;;;6.68;4.22;;;;;;;20.03;36.00;101410.72;;;;-50
2020/04/08 10:11:14;;;;;;;5.11;3.89;;;;;;;20.03;35.99;101404.97;;;;-51
2020/04/08 10:14:12;;;;;;;4.75;3.81;;;;;;;20.03;36.02;101405.74;;;;-51
2020/04/08 10:20:29;;;;;;;5.88;3.73;;;;;;;20.04;35.95;101397.69;;;;-58
2020/04/08 10:23:11;;;;;;;5.75;4.03;;;;;;;20.03;35.78;101393.77;;;;-59
2020/04/08 10:26:14;;;;;;;4.90;3.98;;;;;;;20.02;35.69;101390.87;;;;-58
2020/04/08 10:32:22;;;;;;;5.11;3.87;;;;;;;19.98;35.60;101377.25;;;;-59
2020/04/08 10:35:46;;;;;;;4.29;3.76;;;;;;;19.97;35.58;101377.59;;;;-51
2020/04/08 10:43:07;;;;;;;5.05;3.75;;;;;;;19.97;35.81;101362.50;;;;-53
2020/04/08 10:46:07;;;;;;;8.69;3.85;;;;;;;19.99;35.86;101362.81;;;;-58
2020/04/08 10:49:07;;;;;;;6.64;3.75;;;;;;;19.98;35.83;101359.12;;;;-58
2020/04/08 10:52:07;;;;;;;7.15;4.07;;;;;;;19.96;35.69;101358.53;;;;-58
2020/04/08 10:55:08;;;;;;;8.22;4.01;;;;;;;19.95;35.68;101353.95;;;;-58
2020/04/08 10:58:08;;;;;;;6.05;3.81;;;;;;;19.93;35.67;101351.71;;;;-58
2020/04/08 11:01:07;;;;;;;5.55;3.93;;;;;;;19.92;35.63;101344.09;;;;-56
2020/04/08 11:04:07;;;;;;;4.87;3.68;;;;;;;19.90;35.66;101339.91;;;;-57
2020/04/08 11:07:07;;;;;;;5.80;3.88;;;;;;;19.90;35.64;101338.33;;;;-57
2020/04/08 11:10:07;;;;;;;5.11;3.97;;;;;;;19.88;35.66;101334.60;;;;-57
2020/04/08 11:13:07;;;;;;;7.59;4.08;;;;;;;19.87;35.63;101330.95;;;;-58
2020/04/08 11:16:07;;;;;;;5.17;3.81;;;;;;;19.86;35.59;101332.92;;;;-58
2020/04/08 11:19:08;;;;;;;5.13;3.87;;;;;;;19.85;35.56;101333.36;;;;-58
2020/04/08 11:22:08;;;;;;;6.62;3.85;;;;;;;19.84;35.55;101335.09;;;;-58
2020/04/08 11:25:07;;;;;;;5.99;3.71;;;;;;;19.83;35.57;101332.51;;;;-57
2020/04/08 11:28:07;;;;;;;5.08;3.86;;;;;;;19.81;35.52;101329.28;;;;-58
2020/04/08 11:31:09;;;;;;;4.21;3.81;;;;;;;19.81;35.53;101327.27;;;;-56
2020/04/08 11:34:08;;;;;;;4.45;3.80;;;;;;;19.80;35.49;101326.15;;;;-58
2020/04/08 11:37:08;;;;;;;4.18;3.61;;;;;;;19.80;35.51;101323.30;;;;-57
2020/04/08 11:40:08;;;;;;;4.17;3.59;;;;;;;19.78;35.47;101319.33;;;;-57
2020/04/08 11:43:07;;;;;;;4.91;3.80;;;;;;;19.78;35.47;101318.22;;;;-57
2020/04/08 11:46:07;;;;;;;5.27;3.89;;;;;;;19.77;35.45;101315.98;;;;-58
2020/04/08 11:49:07;;;;;;;6.08;3.79;;;;;;;19.77;35.46;101312.11;;;;-57
2020/04/08 11:52:07;;;;;;;5.19;3.81;;;;;;;19.75;35.40;101305.73;;;;-58
2020/04/08 11:55:08;;;;;;;6.59;3.96;;;;;;;19.75;35.37;101304.95;;;;-57
2020/04/08 11:58:08;;;;;;;4.49;3.69;;;;;;;19.73;35.39;101300.61;;;;-57
2020/04/08 12:01:10;;;;;;;3.88;3.55;;;;;;;19.72;35.37;101295.45;;;;-58
2020/04/08 12:04:08;;;;;;;6.11;3.88;;;;;;;19.72;35.36;101293.29;;;;-56
2020/04/08 12:07:07;;;;;;;4.73;3.49;;;;;;;19.71;35.37;101291.39;;;;-57
2020/04/08 12:10:07;;;;;;;5.02;3.53;;;;;;;19.71;35.33;101286.30;;;;-57
2020/04/08 12:13:07;;;;;;;4.58;3.65;;;;;;;19.70;35.37;101284.95;;;;-57
2020/04/08 12:16:07;;;;;;;5.06;3.85;;;;;;;19.69;35.33;101284.67;;;;-57
2020/04/08 12:19:07;;;;;;;4.79;3.59;;;;;;;19.68;35.40;101276.78;;;;-51
2020/04/08 12:22:08;;;;;;;6.33;3.71;;;;;;;19.69;35.65;101270.70;;;;-49
2020/04/08 12:25:08;;;;;;;5.58;3.57;;;;;;;19.70;35.81;101266.19;;;;-51
2020/04/08 12:28:07;;;;;;;5.27;3.71;;;;;;;19.70;35.94;101264.95;;;;-51
2020/04/08 12:31:07;;;;;;;4.36;3.70;;;;;;;19.70;35.95;101263.33;;;;-56
2020/04/08 12:34:07;;;;;;;6.59;3.75;;;;;;;19.72;36.07;101261.22;;;;-54
2020/04/08 12:37:08;;;;;;;5.97;3.91;;;;;;;19.72;36.09;101255.29;;;;-52
2020/04/08 12:40:10;;;;;;;5.51;3.63;;;;;;;19.72;36.05;101257.86;;;;-46
2020/04/08 12:44:11;;;;;;;4.15;3.67;;;;;;;19.74;36.13;101252.38;;;;-50
2020/04/08 12:47:22;;;;;;;5.92;3.63;;;;;;;19.73;36.07;101246.45;;;;-54
2020/04/08 12:50:14;;;;;;;5.20;3.50;;;;;;;19.74;36.10;101239.48;;;;-58
2020/04/08 12:53:18;;;;;;;3.89;3.46;;;;;;;19.75;36.08;101237.92;;;;-54
2020/04/08 12:56:14;;;;;;;5.23;3.34;;;;;;;19.75;36.09;101235.19;;;;-55
2020/04/08 12:59:24;;;;;;;4.93;3.51;;;;;;;19.76;36.08;101232.44;;;;-49
2020/04/08 13:02:07;;;;;;;3.69;3.17;;;;;;;19.76;36.16;101228.92;;;;-52
2020/04/08 13:05:07;;;;;;;4.33;3.55;;;;;;;19.77;36.12;101228.41;;;;-51
2020/04/08 13:08:07;;;;;;;5.23;3.65;;;;;;;19.75;36.01;101223.72;;;;-51
2020/04/08 13:11:07;;;;;;;4.93;3.56;;;;;;;19.73;36.13;101223.00;;;;-57
2020/04/08 13:14:07;;;;;;;4.86;3.52;;;;;;;19.74;36.09;101219.47;;;;-55
2020/04/08 13:17:07;;;;;;;5.98;3.41;;;;;;;19.74;36.19;101212.77;;;;-55
2020/04/08 13:20:13;;;;;;;4.01;3.33;;;;;;;19.74;35.97;101211.89;;;;-56
2020/04/08 13:23:07;;;;;;;3.67;3.33;;;;;;;19.73;35.94;101207.37;;;;-55
2020/04/08 13:26:07;;;;;;;6.15;3.55;;;;;;;19.71;35.92;101205.96;;;;-56
2020/04/08 13:29:08;;;;;;;4.69;3.31;;;;;;;19.72;35.87;101203.56;;;;-55
2020/04/08 13:32:08;;;;;;;4.41;3.48;;;;;;;19.70;35.83;101197.13;;;;-55
2020/04/08 13:35:07;;;;;;;4.52;3.19;;;;;;;19.70;35.77;101194.28;;;;-55
2020/04/08 13:39:07;;;;;;;3.83;3.41;;;;;;;19.68;35.72;101185.78;;;;-56
2020/04/08 13:42:07;;;;;;;3.85;3.17;;;;;;;19.68;35.72;101183.73;;;;-56
2020/04/08 13:46:07;;;;;;;5.65;3.44;;;;;;;19.68;35.84;101183.13;;;;-48
2020/04/08 13:49:07;;;;;;;4.37;3.31;;;;;;;19.67;35.94;101174.96;;;;-57
2020/04/08 13:52:07;;;;;;;4.54;3.29;;;;;;;19.68;36.10;101171.61;;;;-56
2020/04/08 13:55:07;;;;;;;3.82;3.20;;;;;;;19.68;36.10;101165.41;;;;-58
2020/04/08 13:58:07;;;;;;;3.79;3.37;;;;;;;19.70;36.17;101170.00;;;;-50
2020/04/08 14:01:07;;;;;;;3.87;3.29;;;;;;;19.70;36.21;101165.24;;;;-51
2020/04/08 14:04:07;;;;;;;3.32;3.02;;;;;;;19.70;36.23;101163.00;;;;-57
2020/04/08 14:07:07;;;;;;;4.57;3.27;;;;;;;19.72;36.23;101164.17;;;;-58
2020/04/08 14:10:07;;;;;;;5.18;3.42;;;;;;;19.72;36.30;101155.13;;;;-47
2020/04/08 14:13:08;;;;;;;3.83;3.27;;;;;;;19.73;36.32;101157.30;;;;-48
2020/04/08 14:16:07;;;;;;;4.04;3.05;;;;;;;19.73;36.37;101150.72;;;;-54
2020/04/08 14:19:07;;;;;;;3.35;3.01;;;;;;;19.75;36.41;101155.07;;;;-51
2020/04/08 14:22:07;;;;;;;3.31;3.01;;;;;;;19.75;36.20;101145.67;;;;-51
2020/04/08 14:25:07;;;;;;;3.37;3.07;;;;;;;19.73;36.08;101141.72;;;;-51
2020/04/08 14:28:08;;;;;;;5.52;3.07;;;;;;;19.73;36.05;101136.69;;;;-51
2020/04/08 14:31:07;;;;;;;3.57;3.27;;;;;;;19.73;36.03;101133.29;;;;-51
2020/04/08 14:34:07;;;;;;;4.73;3.19;;;;;;;19.72;36.00;101132.05;;;;-51
2020/04/08 14:37:07;;;;;;;3.89;3.32;;;;;;;19.70;35.99;101124.06;;;;-51
2020/04/08 14:40:07;;;;;;;3.67;3.16;;;;;;;19.70;35.95;101119.16;;;;-51
2020/04/08 14:43:07;;;;;;;5.80;3.05;;;;;;;19.69;35.90;101118.77;;;;-51
2020/04/08 14:46:07;;;;;;;3.31;3.01;;;;;;;19.69;35.87;101118.66;;;;-51
2020/04/08 14:49:08;;;;;;;3.56;3.09;;;;;;;19.68;35.83;101118.31;;;;-51
2020/04/08 14:52:08;;;;;;;3.60;2.92;;;;;;;19.66;35.82;101116.03;;;;-51
2020/04/08 14:55:07;;;;;;;3.33;3.03;;;;;;;19.65;35.82;101116.25;;;;-51
2020/04/08 14:58:07;;;;;;;3.68;2.97;;;;;;;19.65;35.77;101112.44;;;;-51
2020/04/08 15:01:08;;;;;;;3.47;3.08;;;;;;;19.64;35.78;101106.98;;;;-51
2020/04/08 15:04:07;;;;;;;3.18;2.86;;;;;;;19.63;35.75;101104.74;;;;-51
2020/04/08 15:07:07;;;;;;;3.48;2.91;;;;;;;19.63;35.72;101101.02;;;;-51
2020/04/08 15:10:07;;;;;;;3.21;2.91;;;;;;;19.63;35.71;101101.78;;;;-51
2020/04/08 15:13:07;;;;;;;3.09;2.80;;;;;;;19.62;35.71;101099.45;;;;-51
2020/04/08 15:16:07;;;;;;;3.83;3.00;;;;;;;19.61;35.67;101097.72;;;;-51
2020/04/08 15:19:07;;;;;;;3.23;2.69;;;;;;;19.61;35.66;101100.17;;;;-51
2020/04/08 15:22:07;;;;;;;4.34;2.99;;;;;;;19.58;35.77;101095.16;;;;-53
2020/04/08 15:25:07;;;;;;;3.20;2.90;;;;;;;19.62;36.24;101095.70;;;;-55
2020/04/08 15:28:07;;;;;;;5.73;3.05;;;;;;;19.62;36.61;101092.62;;;;-51
2020/04/08 15:31:08;;;;;;;4.08;2.98;;;;;;;19.62;36.59;101088.61;;;;-53
2020/04/08 15:34:07;;;;;;;5.23;3.03;;;;;;;19.62;36.40;101085.92;;;;-52
2020/04/08 15:37:07;;;;;;;6.97;3.30;;;;;;;19.65;37.29;101084.08;;;;-52
2020/04/08 15:40:07;;;;;;;6.51;2.96;;;;;;;19.67;37.85;101085.81;;;;-51
2020/04/08 15:43:07;;;;;;;5.59;3.13;;;;;;;19.69;37.83;101083.11;;;;-52
2020/04/08 15:46:07;;;;;;;19.05;3.21;;;;;;;19.73;38.26;101079.71;;;;-49
2020/04/08 15:49:08;;;;;;;9.89;3.55;;;;;;;19.74;37.63;101076.47;;;;-53
2020/04/08 15:52:07;;;;;;;7.68;3.20;;;;;;;19.73;38.16;101078.70;;;;-61
2020/04/08 15:55:07;;;;;;;12.20;3.06;;;;;;;19.74;37.71;101080.94;;;;-55
2020/04/08 15:58:08;;;;;;;6.56;2.91;;;;;;;19.74;37.61;101077.58;;;;-57
2020/04/08 16:04:32;;;;;;;10.49;3.29;;;;;;;19.75;37.65;101077.23;;;;-56
2020/04/08 16:07:13;;;;;;;5.56;2.84;;;;;;;19.75;37.55;101077.69;;;;-52
2020/04/08 16:10:15;;;;;;;5.15;2.95;;;;;;;19.75;37.58;101078.70;;;;-52
2020/04/08 16:18:13;;;;;;;5.07;3.12;;;;;;;19.73;37.08;101077.53;;;;-54
2020/04/08 16:21:15;;;;;;;3.72;2.93;;;;;;;19.72;37.02;101077.77;;;;-54
2020/04/08 16:24:29;;;;;;;4.61;3.00;;;;;;;19.71;37.25;101075.13;;;;-57
2020/04/08 16:27:19;;;;;;;6.47;3.06;;;;;;;19.71;37.29;101076.47;;;;-50
2020/04/08 16:30:14;;;;;;;4.02;2.94;;;;;;;19.70;37.27;101077.42;;;;-52
2020/04/08 16:38:20;;;;;;;4.12;2.77;;;;;;;19.70;37.23;101078.44;;;;-51
2020/04/08 16:41:07;;;;;;;4.67;3.01;;;;;;;19.70;37.24;101076.80;;;;-55
2020/04/08 16:44:07;;;;;;;5.49;2.82;;;;;;;19.71;37.18;101080.73;;;;-55
2020/04/08 16:47:07;;;;;;;5.85;3.33;;;;;;;19.72;37.32;101078.31;;;;-51
2020/04/08 16:50:08;;;;;;;6.58;2.74;;;;;;;19.72;37.00;101072.95;;;;-51
2020/04/08 16:53:07;;;;;;;3.23;2.82;;;;;;;19.71;36.98;101074.30;;;;-51
2020/04/08 16:56:14;;;;;;;6.32;2.83;;;;;;;19.70;36.91;101076.25;;;;-51
2020/04/08 17:02:08;;;;;;;3.25;2.73;;;;;;;19.70;36.77;101080.34;;;;-51
2020/04/08 17:05:07;;;;;;;4.20;3.04;;;;;;;19.69;36.73;101079.78;;;;-51
2020/04/08 17:08:07;;;;;;;3.85;2.96;;;;;;;19.67;36.70;101077.48;;;;-51
2020/04/08 17:11:07;;;;;;;4.25;3.03;;;;;;;19.67;36.65;101076.02;;;;-51
2020/04/08 17:14:07;;;;;;;3.45;2.85;;;;;;;19.65;36.58;101073.41;;;;-51
2020/04/08 17:17:07;;;;;;;5.21;2.93;;;;;;;19.65;36.57;101078.33;;;;-51
2020/04/08 17:20:08;;;;;;;4.34;2.71;;;;;;;19.65;36.53;101081.34;;;;-51
2020/04/08 17:23:07;;;;;;;3.98;2.83;;;;;;;19.64;36.47;101078.11;;;;-51
2020/04/08 17:26:07;;;;;;;4.61;2.81;;;;;;;19.64;36.59;101081.56;;;;-52
2020/04/08 17:29:08;;;;;;;6.65;2.97;;;;;;;19.62;36.55;101078.05;;;;-52
2020/04/08 17:32:07;;;;;;;5.67;2.73;;;;;;;19.63;36.46;101083.80;;;;-51
2020/04/08 17:35:07;;;;;;;3.88;2.77;;;;;;;19.62;36.46;101085.65;;;;-52
2020/04/08 17:38:07;;;;;;;4.49;2.71;;;;;;;19.61;36.43;101084.15;;;;-52
2020/04/08 17:41:07;;;;;;;4.21;2.90;;;;;;;19.61;36.40;101084.70;;;;-52
2020/04/08 17:44:07;;;;;;;4.89;2.88;;;;;;;19.60;36.40;101084.47;;;;-52
2020/04/08 17:47:08;;;;;;;3.95;2.75;;;;;;;19.60;36.35;101081.19;;;;-51
2020/04/08 17:50:07;;;;;;;5.76;2.94;;;;;;;19.60;36.32;101078.66;;;;-52
2020/04/08 17:53:07;;;;;;;3.83;2.95;;;;;;;19.59;36.30;101075.70;;;;-52
2020/04/08 17:56:07;;;;;;;4.34;2.86;;;;;;;19.58;36.32;101076.38;;;;-52
2020/04/08 17:59:07;;;;;;;3.51;2.94;;;;;;;19.57;36.26;101079.84;;;;-52
2020/04/08 18:02:07;;;;;;;4.97;2.81;;;;;;;19.56;36.24;101080.96;;;;-52
2020/04/08 18:05:07;;;;;;;4.05;2.77;;;;;;;19.57;36.26;101083.86;;;;-52
2020/04/08 18:08:07;;;;;;;2.91;2.58;;;;;;;19.55;36.23;101086.05;;;;-52
2020/04/08 18:11:07;;;;;;;4.21;2.66;;;;;;;19.56;36.20;101087.16;;;;-52